sensor_id;sensor_type;location;lat;lon;timestamp;P1;durP1;ratioP1;P2;durP2;ratioP2
30233;SDS011;17046;52.074;4.748;2023-02-15T00:00:01;80.63;;;39.33;;
30233;SDS011;17046;52.074;4.748;2023-02-15T00:02:28;80.30;;;40.33;;
30233;SDS011;17046;52.074;4.748;2023-02-15T00:04:53;74.90;;;39.17;;
30233;SDS011;17046;52.074;4.748;2023-02-15T00:07:20;79.27;;;40.33;;
30233;SDS011;17046;52.074;4.748;2023-02-15T00:09:46;75.67;;;38.20;;
30233;SDS011;17046;52.074;4.748;2023-02-15T00:12:12;81.80;;;40.23;;
30233;SDS011;17046;52.074;4.748;2023-02-15T00:14:39;79.07;;;40.60;;
30233;SDS011;17046;52.074;4.748;2023-02-15T00:17:05;76.70;;;38.27;;
30233;SDS011;17046;52.074;4.748;2023-02-15T00:19:30;77.80;;;38.53;;
30233;SDS011;17046;52.074;4.748;2023-02-15T00:21:56;74.90;;;38.50;;
30233;SDS011;17046;52.074;4.748;2023-02-15T00:24:22;72.10;;;37.03;;
30233;SDS011;17046;52.074;4.748;2023-02-15T00:26:48;78.40;;;39.20;;
30233;SDS011;17046;52.074;4.748;2023-02-15T00:29:14;83.60;;;40.00;;
30233;SDS011;17046;52.074;4.748;2023-02-15T00:31:41;76.70;;;39.63;;
30233;SDS011;17046;52.074;4.748;2023-02-15T00:34:11;80.73;;;40.57;;
30233;SDS011;17046;52.074;4.748;2023-02-15T00:36:40;76.17;;;39.10;;
30233;SDS011;17046;52.074;4.748;2023-02-15T00:39:06;76.13;;;38.43;;
30233;SDS011;17046;52.074;4.748;2023-02-15T00:41:32;83.40;;;41.57;;
30233;SDS011;17046;52.074;4.748;2023-02-15T00:43:58;82.00;;;40.33;;
30233;SDS011;17046;52.074;4.748;2023-02-15T00:46:24;90.57;;;40.60;;
30233;SDS011;17046;52.074;4.748;2023-02-15T00:48:49;81.73;;;38.47;;
30233;SDS011;17046;52.074;4.748;2023-02-15T00:51:15;74.77;;;37.47;;
30233;SDS011;17046;52.074;4.748;2023-02-15T00:53:42;77.03;;;38.20;;
30233;SDS011;17046;52.074;4.748;2023-02-15T00:56:09;73.63;;;36.33;;
30233;SDS011;17046;52.074;4.748;2023-02-15T00:58:35;72.57;;;36.10;;
30233;SDS011;17046;52.074;4.748;2023-02-15T01:01:05;72.17;;;37.37;;
30233;SDS011;17046;52.074;4.748;2023-02-15T01:03:32;67.27;;;35.40;;
30233;SDS011;17046;52.074;4.748;2023-02-15T01:05:58;63.80;;;34.37;;
30233;SDS011;17046;52.074;4.748;2023-02-15T01:08:24;61.50;;;31.63;;
30233;SDS011;17046;52.074;4.748;2023-02-15T01:10:49;58.57;;;30.70;;
30233;SDS011;17046;52.074;4.748;2023-02-15T01:13:15;51.33;;;29.37;;
30233;SDS011;17046;52.074;4.748;2023-02-15T01:15:41;52.37;;;28.93;;
30233;SDS011;17046;52.074;4.748;2023-02-15T01:18:07;52.13;;;26.57;;
30233;SDS011;17046;52.074;4.748;2023-02-15T01:20:34;44.63;;;24.80;;
30233;SDS011;17046;52.074;4.748;2023-02-15T01:23:03;49.83;;;27.43;;
30233;SDS011;17046;52.074;4.748;2023-02-15T01:25:30;49.83;;;27.77;;
30233;SDS011;17046;52.074;4.748;2023-02-15T01:27:57;42.40;;;25.33;;
30233;SDS011;17046;52.074;4.748;2023-02-15T01:30:23;45.37;;;27.10;;
30233;SDS011;17046;52.074;4.748;2023-02-15T01:32:48;52.60;;;28.77;;
30233;SDS011;17046;52.074;4.748;2023-02-15T01:35:14;49.83;;;27.60;;
30233;SDS011;17046;52.074;4.748;2023-02-15T01:37:40;53.40;;;29.33;;
30233;SDS011;17046;52.074;4.748;2023-02-15T01:40:06;52.97;;;28.23;;
30233;SDS011;17046;52.074;4.748;2023-02-15T01:42:33;52.87;;;28.80;;
30233;SDS011;17046;52.074;4.748;2023-02-15T01:45:03;53.67;;;30.80;;
30233;SDS011;17046;52.074;4.748;2023-02-15T01:53:08;70.30;;;34.97;;
30233;SDS011;17046;52.074;4.748;2023-02-15T01:55:39;70.07;;;34.63;;
30233;SDS011;17046;52.074;4.748;2023-02-15T01:58:09;76.90;;;37.17;;
30233;SDS011;17046;52.074;4.748;2023-02-15T02:00:34;79.93;;;38.67;;
30233;SDS011;17046;52.074;4.748;2023-02-15T02:03:00;75.53;;;37.30;;
30233;SDS011;17046;52.074;4.748;2023-02-15T02:05:28;73.37;;;36.37;;
30233;SDS011;17046;52.074;4.748;2023-02-15T02:07:55;83.23;;;38.90;;
30233;SDS011;17046;52.074;4.748;2023-02-15T02:10:23;73.30;;;37.33;;
30233;SDS011;17046;52.074;4.748;2023-02-15T02:12:50;81.97;;;37.60;;
30233;SDS011;17046;52.074;4.748;2023-02-15T02:15:20;80.60;;;38.37;;
30233;SDS011;17046;52.074;4.748;2023-02-15T02:23:23;76.23;;;38.80;;
30233;SDS011;17046;52.074;4.748;2023-02-15T02:29:50;79.93;;;39.20;;
30233;SDS011;17046;52.074;4.748;2023-02-15T02:34:55;69.70;;;35.30;;
30233;SDS011;17046;52.074;4.748;2023-02-15T02:37:59;73.63;;;36.30;;
30233;SDS011;17046;52.074;4.748;2023-02-15T02:40:49;75.70;;;37.10;;
30233;SDS011;17046;52.074;4.748;2023-02-15T02:43:40;72.93;;;36.03;;
30233;SDS011;17046;52.074;4.748;2023-02-15T02:48:50;71.03;;;35.40;;
30233;SDS011;17046;52.074;4.748;2023-02-15T02:51:16;82.77;;;38.40;;
30233;SDS011;17046;52.074;4.748;2023-02-15T02:53:46;78.30;;;36.13;;
30233;SDS011;17046;52.074;4.748;2023-02-15T02:56:27;67.60;;;35.87;;
30233;SDS011;17046;52.074;4.748;2023-02-15T03:01:46;74.47;;;36.23;;
30233;SDS011;17046;52.074;4.748;2023-02-15T03:04:20;75.97;;;36.37;;
30233;SDS011;17046;52.074;4.748;2023-02-15T03:06:52;70.90;;;35.03;;
30233;SDS011;17046;52.074;4.748;2023-02-15T03:09:37;72.47;;;36.17;;
30233;SDS011;17046;52.074;4.748;2023-02-15T03:12:10;80.70;;;38.40;;
30233;SDS011;17046;52.074;4.748;2023-02-15T03:14:44;80.03;;;36.47;;
30233;SDS011;17046;52.074;4.748;2023-02-15T03:17:14;75.93;;;36.27;;
30233;SDS011;17046;52.074;4.748;2023-02-15T03:19:43;71.67;;;34.97;;
30233;SDS011;17046;52.074;4.748;2023-02-15T03:22:16;71.33;;;35.07;;
30233;SDS011;17046;52.074;4.748;2023-02-15T03:24:51;68.67;;;35.10;;
30233;SDS011;17046;52.074;4.748;2023-02-15T03:27:36;63.23;;;33.57;;
30233;SDS011;17046;52.074;4.748;2023-02-15T03:30:06;70.83;;;34.00;;
30233;SDS011;17046;52.074;4.748;2023-02-15T03:32:33;71.10;;;36.37;;
30233;SDS011;17046;52.074;4.748;2023-02-15T03:35:00;74.10;;;36.50;;
30233;SDS011;17046;52.074;4.748;2023-02-15T03:37:34;75.60;;;36.10;;
30233;SDS011;17046;52.074;4.748;2023-02-15T03:40:23;73.63;;;35.50;;
30233;SDS011;17046;52.074;4.748;2023-02-15T03:43:18;77.30;;;35.57;;
30233;SDS011;17046;52.074;4.748;2023-02-15T03:46:08;68.90;;;34.27;;
30233;SDS011;17046;52.074;4.748;2023-02-15T03:48:57;73.83;;;35.73;;
30233;SDS011;17046;52.074;4.748;2023-02-15T03:51:31;80.43;;;35.70;;
30233;SDS011;17046;52.074;4.748;2023-02-15T03:54:09;74.33;;;35.47;;
30233;SDS011;17046;52.074;4.748;2023-02-15T03:56:40;71.97;;;35.30;;
30233;SDS011;17046;52.074;4.748;2023-02-15T03:59:27;81.17;;;36.17;;
30233;SDS011;17046;52.074;4.748;2023-02-15T04:02:15;73.40;;;34.63;;
30233;SDS011;17046;52.074;4.748;2023-02-15T04:04:48;75.07;;;35.07;;
30233;SDS011;17046;52.074;4.748;2023-02-15T04:07:13;77.33;;;37.60;;
30233;SDS011;17046;52.074;4.748;2023-02-15T04:09:39;79.57;;;35.67;;
30233;SDS011;17046;52.074;4.748;2023-02-15T04:12:23;82.43;;;36.13;;
30233;SDS011;17046;52.074;4.748;2023-02-15T04:14:49;79.37;;;37.20;;
30233;SDS011;17046;52.074;4.748;2023-02-15T04:17:33;84.83;;;38.67;;
30233;SDS011;17046;52.074;4.748;2023-02-15T04:20:00;89.17;;;39.50;;
30233;SDS011;17046;52.074;4.748;2023-02-15T04:22:44;78.30;;;35.80;;
30233;SDS011;17046;52.074;4.748;2023-02-15T04:25:28;78.30;;;36.30;;
30233;SDS011;17046;52.074;4.748;2023-02-15T04:27:54;75.30;;;35.57;;
30233;SDS011;17046;52.074;4.748;2023-02-15T04:30:21;79.10;;;37.03;;
30233;SDS011;17046;52.074;4.748;2023-02-15T04:32:48;76.07;;;36.80;;
30233;SDS011;17046;52.074;4.748;2023-02-15T04:35:14;82.80;;;37.93;;
30233;SDS011;17046;52.074;4.748;2023-02-15T04:37:41;72.17;;;35.27;;
30233;SDS011;17046;52.074;4.748;2023-02-15T04:40:08;79.67;;;37.17;;
30233;SDS011;17046;52.074;4.748;2023-02-15T04:42:35;77.33;;;37.03;;
30233;SDS011;17046;52.074;4.748;2023-02-15T04:45:02;79.17;;;35.43;;
30233;SDS011;17046;52.074;4.748;2023-02-15T04:47:28;76.27;;;36.40;;
30233;SDS011;17046;52.074;4.748;2023-02-15T04:49:53;74.53;;;36.47;;
30233;SDS011;17046;52.074;4.748;2023-02-15T04:52:19;77.77;;;36.73;;
30233;SDS011;17046;52.074;4.748;2023-02-15T04:54:45;75.03;;;35.87;;
30233;SDS011;17046;52.074;4.748;2023-02-15T04:57:10;77.27;;;35.60;;
30233;SDS011;17046;52.074;4.748;2023-02-15T04:59:36;77.67;;;35.20;;
30233;SDS011;17046;52.074;4.748;2023-02-15T05:02:02;79.40;;;37.30;;
30233;SDS011;17046;52.074;4.748;2023-02-15T05:04:28;73.90;;;35.83;;
30233;SDS011;17046;52.074;4.748;2023-02-15T05:06:53;81.43;;;37.53;;
30233;SDS011;17046;52.074;4.748;2023-02-15T05:09:19;73.30;;;36.57;;
30233;SDS011;17046;52.074;4.748;2023-02-15T05:11:44;82.83;;;38.27;;
30233;SDS011;17046;52.074;4.748;2023-02-15T05:14:10;84.50;;;37.60;;
30233;SDS011;17046;52.074;4.748;2023-02-15T05:16:36;84.77;;;36.97;;
30233;SDS011;17046;52.074;4.748;2023-02-15T05:19:02;77.80;;;36.77;;
30233;SDS011;17046;52.074;4.748;2023-02-15T05:21:27;78.33;;;36.17;;
30233;SDS011;17046;52.074;4.748;2023-02-15T05:23:53;84.37;;;37.17;;
30233;SDS011;17046;52.074;4.748;2023-02-15T05:26:20;74.27;;;35.57;;
30233;SDS011;17046;52.074;4.748;2023-02-15T05:29:05;80.33;;;36.40;;
30233;SDS011;17046;52.074;4.748;2023-02-15T05:31:32;82.03;;;37.07;;
30233;SDS011;17046;52.074;4.748;2023-02-15T05:33:58;78.23;;;35.37;;
30233;SDS011;17046;52.074;4.748;2023-02-15T05:36:24;73.83;;;36.20;;
30233;SDS011;17046;52.074;4.748;2023-02-15T05:38:50;80.80;;;37.17;;
30233;SDS011;17046;52.074;4.748;2023-02-15T05:41:15;81.57;;;36.70;;
30233;SDS011;17046;52.074;4.748;2023-02-15T05:43:41;79.07;;;35.40;;
30233;SDS011;17046;52.074;4.748;2023-02-15T05:46:07;75.17;;;35.23;;
30233;SDS011;17046;52.074;4.748;2023-02-15T05:48:33;86.53;;;37.53;;
30233;SDS011;17046;52.074;4.748;2023-02-15T05:51:06;73.37;;;34.40;;
30233;SDS011;17046;52.074;4.748;2023-02-15T05:53:35;76.77;;;36.20;;
30233;SDS011;17046;52.074;4.748;2023-02-15T05:56:03;84.03;;;37.73;;
30233;SDS011;17046;52.074;4.748;2023-02-15T05:58:30;78.00;;;35.97;;
30233;SDS011;17046;52.074;4.748;2023-02-15T06:00:57;75.17;;;35.43;;
30233;SDS011;17046;52.074;4.748;2023-02-15T06:03:23;81.23;;;35.60;;
30233;SDS011;17046;52.074;4.748;2023-02-15T06:05:50;86.47;;;35.20;;
30233;SDS011;17046;52.074;4.748;2023-02-15T06:08:17;80.30;;;34.90;;
30233;SDS011;17046;52.074;4.748;2023-02-15T06:10:43;76.07;;;35.10;;
30233;SDS011;17046;52.074;4.748;2023-02-15T06:13:10;88.63;;;37.97;;
30233;SDS011;17046;52.074;4.748;2023-02-15T06:15:36;76.73;;;34.00;;
30233;SDS011;17046;52.074;4.748;2023-02-15T06:18:01;76.30;;;34.63;;
30233;SDS011;17046;52.074;4.748;2023-02-15T06:20:27;81.60;;;36.03;;
30233;SDS011;17046;52.074;4.748;2023-02-15T06:22:53;81.20;;;35.30;;
30233;SDS011;17046;52.074;4.748;2023-02-15T06:25:18;81.53;;;34.90;;
30233;SDS011;17046;52.074;4.748;2023-02-15T06:27:44;84.03;;;34.50;;
30233;SDS011;17046;52.074;4.748;2023-02-15T06:30:10;72.87;;;33.07;;
30233;SDS011;17046;52.074;4.748;2023-02-15T06:32:36;73.23;;;32.57;;
30233;SDS011;17046;52.074;4.748;2023-02-15T06:35:02;76.53;;;33.37;;
30233;SDS011;17046;52.074;4.748;2023-02-15T06:37:28;78.73;;;34.10;;
30233;SDS011;17046;52.074;4.748;2023-02-15T06:39:53;75.33;;;32.43;;
30233;SDS011;17046;52.074;4.748;2023-02-15T06:42:21;71.17;;;33.53;;
30233;SDS011;17046;52.074;4.748;2023-02-15T06:44:47;68.53;;;31.63;;
30233;SDS011;17046;52.074;4.748;2023-02-15T06:47:12;77.77;;;33.07;;
30233;SDS011;17046;52.074;4.748;2023-02-15T06:49:38;80.90;;;33.00;;
30233;SDS011;17046;52.074;4.748;2023-02-15T06:52:04;72.30;;;30.77;;
30233;SDS011;17046;52.074;4.748;2023-02-15T06:54:29;74.33;;;32.50;;
30233;SDS011;17046;52.074;4.748;2023-02-15T06:56:55;80.07;;;34.77;;
30233;SDS011;17046;52.074;4.748;2023-02-15T06:59:21;66.57;;;29.73;;
30233;SDS011;17046;52.074;4.748;2023-02-15T07:01:46;81.93;;;33.63;;
30233;SDS011;17046;52.074;4.748;2023-02-15T07:04:13;77.17;;;33.93;;
30233;SDS011;17046;52.074;4.748;2023-02-15T07:06:39;86.67;;;36.50;;
30233;SDS011;17046;52.074;4.748;2023-02-15T07:09:05;75.50;;;34.00;;
30233;SDS011;17046;52.074;4.748;2023-02-15T07:11:31;80.40;;;35.20;;
30233;SDS011;17046;52.074;4.748;2023-02-15T07:14:15;83.53;;;35.13;;
30233;SDS011;17046;52.074;4.748;2023-02-15T07:16:40;78.17;;;32.47;;
30233;SDS011;17046;52.074;4.748;2023-02-15T07:19:06;82.33;;;34.63;;
30233;SDS011;17046;52.074;4.748;2023-02-15T07:21:32;82.30;;;35.17;;
30233;SDS011;17046;52.074;4.748;2023-02-15T07:23:58;91.43;;;36.20;;
30233;SDS011;17046;52.074;4.748;2023-02-15T07:26:24;84.53;;;34.63;;
30233;SDS011;17046;52.074;4.748;2023-02-15T07:28:50;77.70;;;33.77;;
30233;SDS011;17046;52.074;4.748;2023-02-15T07:31:16;83.37;;;34.90;;
30233;SDS011;17046;52.074;4.748;2023-02-15T07:33:41;85.70;;;36.03;;
30233;SDS011;17046;52.074;4.748;2023-02-15T07:36:07;84.53;;;37.17;;
30233;SDS011;17046;52.074;4.748;2023-02-15T07:38:37;85.17;;;36.20;;
30233;SDS011;17046;52.074;4.748;2023-02-15T07:41:08;89.47;;;38.67;;
30233;SDS011;17046;52.074;4.748;2023-02-15T07:43:36;84.80;;;35.63;;
30233;SDS011;17046;52.074;4.748;2023-02-15T07:46:08;94.93;;;38.13;;
30233;SDS011;17046;52.074;4.748;2023-02-15T07:48:36;89.87;;;38.73;;
30233;SDS011;17046;52.074;4.748;2023-02-15T07:51:04;94.67;;;39.33;;
30233;SDS011;17046;52.074;4.748;2023-02-15T07:53:31;94.53;;;38.33;;
30233;SDS011;17046;52.074;4.748;2023-02-15T07:56:00;97.67;;;40.43;;
30233;SDS011;17046;52.074;4.748;2023-02-15T07:58:27;97.43;;;38.77;;
30233;SDS011;17046;52.074;4.748;2023-02-15T08:01:26;101.57;;;41.40;;
30233;SDS011;17046;52.074;4.748;2023-02-15T08:03:55;101.80;;;40.80;;
30233;SDS011;17046;52.074;4.748;2023-02-15T08:06:22;101.67;;;39.03;;
30233;SDS011;17046;52.074;4.748;2023-02-15T08:08:49;105.97;;;42.93;;
30233;SDS011;17046;52.074;4.748;2023-02-15T08:13:55;113.23;;;43.90;;
30233;SDS011;17046;52.074;4.748;2023-02-15T08:16:43;99.40;;;43.10;;
30233;SDS011;17046;52.074;4.748;2023-02-15T08:19:16;102.83;;;43.53;;
30233;SDS011;17046;52.074;4.748;2023-02-15T08:21:44;110.30;;;44.17;;
30233;SDS011;17046;52.074;4.748;2023-02-15T08:24:12;112.80;;;43.33;;
30233;SDS011;17046;52.074;4.748;2023-02-15T08:26:40;117.03;;;45.37;;
30233;SDS011;17046;52.074;4.748;2023-02-15T08:29:06;109.87;;;43.63;;
30233;SDS011;17046;52.074;4.748;2023-02-15T08:31:33;113.10;;;46.63;;
30233;SDS011;17046;52.074;4.748;2023-02-15T08:34:00;115.20;;;45.60;;
30233;SDS011;17046;52.074;4.748;2023-02-15T08:36:27;113.73;;;45.07;;
30233;SDS011;17046;52.074;4.748;2023-02-15T08:38:55;107.77;;;43.27;;
30233;SDS011;17046;52.074;4.748;2023-02-15T08:41:26;109.43;;;46.13;;
30233;SDS011;17046;52.074;4.748;2023-02-15T08:43:55;118.90;;;47.47;;
30233;SDS011;17046;52.074;4.748;2023-02-15T08:46:23;126.57;;;49.87;;
30233;SDS011;17046;52.074;4.748;2023-02-15T08:48:50;115.57;;;49.00;;
30233;SDS011;17046;52.074;4.748;2023-02-15T08:51:18;129.00;;;50.63;;
30233;SDS011;17046;52.074;4.748;2023-02-15T08:53:50;125.77;;;48.83;;
30233;SDS011;17046;52.074;4.748;2023-02-15T08:56:19;137.83;;;52.67;;
30233;SDS011;17046;52.074;4.748;2023-02-15T08:58:46;143.27;;;55.77;;
30233;SDS011;17046;52.074;4.748;2023-02-15T09:01:22;141.63;;;57.00;;
30233;SDS011;17046;52.074;4.748;2023-02-15T09:03:56;146.50;;;59.47;;
30233;SDS011;17046;52.074;4.748;2023-02-15T09:06:23;143.53;;;57.77;;
30233;SDS011;17046;52.074;4.748;2023-02-15T09:08:49;135.33;;;56.50;;
30233;SDS011;17046;52.074;4.748;2023-02-15T09:11:16;143.97;;;59.90;;
30233;SDS011;17046;52.074;4.748;2023-02-15T09:13:51;141.60;;;60.00;;
30233;SDS011;17046;52.074;4.748;2023-02-15T09:16:19;147.47;;;60.47;;
30233;SDS011;17046;52.074;4.748;2023-02-15T09:18:46;142.00;;;59.40;;
30233;SDS011;17046;52.074;4.748;2023-02-15T09:21:13;157.90;;;62.23;;
30233;SDS011;17046;52.074;4.748;2023-02-15T09:23:40;145.50;;;60.47;;
30233;SDS011;17046;52.074;4.748;2023-02-15T09:26:08;149.50;;;59.87;;
30233;SDS011;17046;52.074;4.748;2023-02-15T09:28:38;146.90;;;62.10;;
30233;SDS011;17046;52.074;4.748;2023-02-15T09:31:23;140.23;;;61.23;;
30233;SDS011;17046;52.074;4.748;2023-02-15T09:33:50;142.90;;;61.37;;
30233;SDS011;17046;52.074;4.748;2023-02-15T09:36:26;160.80;;;68.30;;
30233;SDS011;17046;52.074;4.748;2023-02-15T09:39:03;147.77;;;64.30;;
30233;SDS011;17046;52.074;4.748;2023-02-15T09:50:47;148.57;;;69.57;;
30233;SDS011;17046;52.074;4.748;2023-02-15T09:56:48;144.40;;;68.00;;
30233;SDS011;17046;52.074;4.748;2023-02-15T09:59:34;148.77;;;68.73;;
30233;SDS011;17046;52.074;4.748;2023-02-15T10:02:08;134.03;;;64.87;;
30233;SDS011;17046;52.074;4.748;2023-02-15T10:14:26;110.60;;;54.27;;
30233;SDS011;17046;52.074;4.748;2023-02-15T10:28:31;92.47;;;46.87;;
30233;SDS011;17046;52.074;4.748;2023-02-15T10:31:32;85.53;;;45.23;;
30233;SDS011;17046;52.074;4.748;2023-02-15T10:34:16;89.00;;;47.77;;
30233;SDS011;17046;52.074;4.748;2023-02-15T10:37:13;81.83;;;43.87;;
30233;SDS011;17046;52.074;4.748;2023-02-15T10:48:16;72.47;;;39.70;;
30233;SDS011;17046;52.074;4.748;2023-02-15T10:50:56;70.20;;;38.10;;
30233;SDS011;17046;52.074;4.748;2023-02-15T10:56:23;66.23;;;37.00;;
30233;SDS011;17046;52.074;4.748;2023-02-15T11:07:16;64.93;;;37.27;;
30233;SDS011;17046;52.074;4.748;2023-02-15T11:09:51;70.47;;;39.00;;
30233;SDS011;17046;52.074;4.748;2023-02-15T11:12:30;70.27;;;39.87;;
30233;SDS011;17046;52.074;4.748;2023-02-15T11:15:04;65.87;;;38.50;;
30233;SDS011;17046;52.074;4.748;2023-02-15T11:17:42;66.00;;;37.70;;
30233;SDS011;17046;52.074;4.748;2023-02-15T11:23:27;66.83;;;38.57;;
30233;SDS011;17046;52.074;4.748;2023-02-15T11:25:57;68.47;;;36.77;;
30233;SDS011;17046;52.074;4.748;2023-02-15T11:28:33;67.77;;;37.57;;
30233;SDS011;17046;52.074;4.748;2023-02-15T11:31:04;64.77;;;33.97;;
30233;SDS011;17046;52.074;4.748;2023-02-15T11:33:38;66.97;;;35.60;;
30233;SDS011;17046;52.074;4.748;2023-02-15T11:36:13;68.60;;;37.30;;
30233;SDS011;17046;52.074;4.748;2023-02-15T11:38:44;74.90;;;38.57;;
30233;SDS011;17046;52.074;4.748;2023-02-15T11:41:14;66.10;;;36.23;;
30233;SDS011;17046;52.074;4.748;2023-02-15T11:46:31;65.07;;;37.27;;
30233;SDS011;17046;52.074;4.748;2023-02-15T11:48:57;63.77;;;37.17;;
30233;SDS011;17046;52.074;4.748;2023-02-15T11:51:23;66.07;;;37.50;;
30233;SDS011;17046;52.074;4.748;2023-02-15T11:53:52;65.90;;;35.90;;
30233;SDS011;17046;52.074;4.748;2023-02-15T11:56:26;59.50;;;35.70;;
30233;SDS011;17046;52.074;4.748;2023-02-15T11:58:57;66.83;;;38.87;;
30233;SDS011;17046;52.074;4.748;2023-02-15T12:01:38;63.47;;;35.13;;
30233;SDS011;17046;52.074;4.748;2023-02-15T12:04:10;65.20;;;37.17;;
30233;SDS011;17046;52.074;4.748;2023-02-15T12:06:54;60.17;;;36.17;;
30233;SDS011;17046;52.074;4.748;2023-02-15T12:14:55;65.40;;;37.63;;
30233;SDS011;17046;52.074;4.748;2023-02-15T12:17:32;60.47;;;34.13;;
30233;SDS011;17046;52.074;4.748;2023-02-15T12:20:03;65.87;;;35.53;;
30233;SDS011;17046;52.074;4.748;2023-02-15T12:22:33;57.87;;;33.63;;
30233;SDS011;17046;52.074;4.748;2023-02-15T12:25:02;59.00;;;34.30;;
30233;SDS011;17046;52.074;4.748;2023-02-15T12:27:44;59.80;;;34.43;;
30233;SDS011;17046;52.074;4.748;2023-02-15T12:32:53;59.67;;;34.57;;
30233;SDS011;17046;52.074;4.748;2023-02-15T12:35:32;60.37;;;33.33;;
30233;SDS011;17046;52.074;4.748;2023-02-15T12:38:19;57.37;;;33.87;;
30233;SDS011;17046;52.074;4.748;2023-02-15T12:40:56;59.03;;;35.07;;
30233;SDS011;17046;52.074;4.748;2023-02-15T12:43:26;55.17;;;33.20;;
30233;SDS011;17046;52.074;4.748;2023-02-15T12:46:06;55.17;;;33.40;;
30233;SDS011;17046;52.074;4.748;2023-02-15T12:48:39;56.60;;;32.67;;
30233;SDS011;17046;52.074;4.748;2023-02-15T12:51:08;55.87;;;34.10;;
30233;SDS011;17046;52.074;4.748;2023-02-15T12:53:34;56.60;;;32.93;;
30233;SDS011;17046;52.074;4.748;2023-02-15T12:56:02;57.47;;;33.60;;
30233;SDS011;17046;52.074;4.748;2023-02-15T12:58:29;56.03;;;34.37;;
30233;SDS011;17046;52.074;4.748;2023-02-15T13:01:03;63.60;;;33.50;;
30233;SDS011;17046;52.074;4.748;2023-02-15T13:03:57;56.40;;;32.83;;
30233;SDS011;17046;52.074;4.748;2023-02-15T13:06:28;59.33;;;34.10;;
30233;SDS011;17046;52.074;4.748;2023-02-15T13:08:58;56.60;;;33.17;;
30233;SDS011;17046;52.074;4.748;2023-02-15T13:11:32;57.63;;;32.33;;
30233;SDS011;17046;52.074;4.748;2023-02-15T13:14:42;56.90;;;32.43;;
30233;SDS011;17046;52.074;4.748;2023-02-15T13:16:53;58.80;;;33.77;;
30233;SDS011;17046;52.074;4.748;2023-02-15T13:19:31;57.07;;;33.40;;
30233;SDS011;17046;52.074;4.748;2023-02-15T13:21:58;54.30;;;32.47;;
30233;SDS011;17046;52.074;4.748;2023-02-15T13:24:35;57.07;;;31.60;;
30233;SDS011;17046;52.074;4.748;2023-02-15T13:27:05;54.27;;;32.70;;
30233;SDS011;17046;52.074;4.748;2023-02-15T13:29:44;55.13;;;32.30;;
30233;SDS011;17046;52.074;4.748;2023-02-15T13:34:49;59.17;;;31.63;;
30233;SDS011;17046;52.074;4.748;2023-02-15T13:40:02;51.33;;;30.80;;
30233;SDS011;17046;52.074;4.748;2023-02-15T13:42:46;55.40;;;31.53;;
30233;SDS011;17046;52.074;4.748;2023-02-15T13:48:14;54.27;;;29.20;;
30233;SDS011;17046;52.074;4.748;2023-02-15T14:01:57;57.60;;;32.87;;
30233;SDS011;17046;52.074;4.748;2023-02-15T14:07:21;55.50;;;31.47;;
30233;SDS011;17046;52.074;4.748;2023-02-15T14:24:12;44.47;;;25.30;;
30233;SDS011;17046;52.074;4.748;2023-02-15T14:27:14;29.70;;;16.03;;
30233;SDS011;17046;52.074;4.748;2023-02-15T14:29:59;26.97;;;13.67;;
30233;SDS011;17046;52.074;4.748;2023-02-15T14:35:03;58.80;;;29.43;;
30233;SDS011;17046;52.074;4.748;2023-02-15T14:43:51;48.47;;;27.93;;
30233;SDS011;17046;52.074;4.748;2023-02-15T14:48:55;52.27;;;29.60;;
30233;SDS011;17046;52.074;4.748;2023-02-15T14:56:42;57.97;;;29.07;;
30233;SDS011;17046;52.074;4.748;2023-02-15T14:59:45;55.30;;;30.67;;
30233;SDS011;17046;52.074;4.748;2023-02-15T15:02:39;58.53;;;30.93;;
30233;SDS011;17046;52.074;4.748;2023-02-15T15:12:55;58.83;;;33.67;;
30233;SDS011;17046;52.074;4.748;2023-02-15T15:25:49;33.87;;;17.47;;
30233;SDS011;17046;52.074;4.748;2023-02-15T15:31:04;54.70;;;30.37;;
30233;SDS011;17046;52.074;4.748;2023-02-15T15:42:24;36.40;;;18.80;;
30233;SDS011;17046;52.074;4.748;2023-02-15T15:50:53;41.37;;;20.27;;
30233;SDS011;17046;52.074;4.748;2023-02-15T15:53:24;8.13;;;3.93;;
30233;SDS011;17046;52.074;4.748;2023-02-15T15:55:53;31.13;;;14.33;;
30233;SDS011;17046;52.074;4.748;2023-02-15T15:58:23;10.30;;;3.50;;
30233;SDS011;17046;52.074;4.748;2023-02-15T16:00:50;44.13;;;23.47;;
30233;SDS011;17046;52.074;4.748;2023-02-15T16:03:21;60.73;;;34.33;;
30233;SDS011;17046;52.074;4.748;2023-02-15T16:05:48;62.13;;;34.13;;
30233;SDS011;17046;52.074;4.748;2023-02-15T16:08:40;39.73;;;20.40;;
30233;SDS011;17046;52.074;4.748;2023-02-15T16:11:23;59.00;;;32.63;;
30233;SDS011;17046;52.074;4.748;2023-02-15T16:13:50;63.27;;;34.57;;
30233;SDS011;17046;52.074;4.748;2023-02-15T16:16:26;62.73;;;34.57;;
30233;SDS011;17046;52.074;4.748;2023-02-15T16:18:53;56.67;;;33.47;;
30233;SDS011;17046;52.074;4.748;2023-02-15T16:21:43;62.37;;;34.97;;
30233;SDS011;17046;52.074;4.748;2023-02-15T16:24:51;66.37;;;37.07;;
30233;SDS011;17046;52.074;4.748;2023-02-15T16:29:47;72.60;;;39.63;;
30233;SDS011;17046;52.074;4.748;2023-02-15T16:32:17;65.43;;;36.73;;
30233;SDS011;17046;52.074;4.748;2023-02-15T16:34:54;73.67;;;38.33;;
30233;SDS011;17046;52.074;4.748;2023-02-15T16:37:25;69.60;;;37.87;;
30233;SDS011;17046;52.074;4.748;2023-02-15T16:39:56;67.37;;;37.07;;
30233;SDS011;17046;52.074;4.748;2023-02-15T16:42:22;68.77;;;38.10;;
30233;SDS011;17046;52.074;4.748;2023-02-15T16:44:50;66.23;;;37.63;;
30233;SDS011;17046;52.074;4.748;2023-02-15T16:49:53;71.03;;;37.63;;
30233;SDS011;17046;52.074;4.748;2023-02-15T16:52:24;69.87;;;37.83;;
30233;SDS011;17046;52.074;4.748;2023-02-15T16:55:00;70.27;;;38.43;;
30233;SDS011;17046;52.074;4.748;2023-02-15T16:57:30;72.03;;;38.93;;
30233;SDS011;17046;52.074;4.748;2023-02-15T17:00:17;79.03;;;41.17;;
30233;SDS011;17046;52.074;4.748;2023-02-15T17:02:58;69.90;;;38.30;;
30233;SDS011;17046;52.074;4.748;2023-02-15T17:05:45;71.23;;;38.97;;
30233;SDS011;17046;52.074;4.748;2023-02-15T17:08:35;71.77;;;39.57;;
30233;SDS011;17046;52.074;4.748;2023-02-15T17:11:15;72.93;;;39.73;;
30233;SDS011;17046;52.074;4.748;2023-02-15T17:16:28;69.87;;;38.53;;
30233;SDS011;17046;52.074;4.748;2023-02-15T17:18:56;75.43;;;39.87;;
30233;SDS011;17046;52.074;4.748;2023-02-15T17:21:25;74.93;;;39.70;;
30233;SDS011;17046;52.074;4.748;2023-02-15T17:23:59;70.43;;;38.83;;
30233;SDS011;17046;52.074;4.748;2023-02-15T17:26:27;72.97;;;39.60;;
30233;SDS011;17046;52.074;4.748;2023-02-15T17:28:56;70.83;;;39.43;;
30233;SDS011;17046;52.074;4.748;2023-02-15T17:31:25;66.37;;;37.80;;
30233;SDS011;17046;52.074;4.748;2023-02-15T17:33:56;75.50;;;39.23;;
30233;SDS011;17046;52.074;4.748;2023-02-15T17:36:24;74.63;;;38.97;;
30233;SDS011;17046;52.074;4.748;2023-02-15T17:41:22;71.97;;;38.17;;
30233;SDS011;17046;52.074;4.748;2023-02-15T17:43:48;71.63;;;40.23;;
30233;SDS011;17046;52.074;4.748;2023-02-15T17:46:14;72.40;;;40.50;;
30233;SDS011;17046;52.074;4.748;2023-02-15T17:48:43;73.43;;;38.87;;
30233;SDS011;17046;52.074;4.748;2023-02-15T17:51:12;72.03;;;39.33;;
30233;SDS011;17046;52.074;4.748;2023-02-15T17:53:38;72.60;;;39.90;;
30233;SDS011;17046;52.074;4.748;2023-02-15T17:56:04;75.40;;;39.53;;